Aviano, Italy

9:45 PM CET on February 09, 2016 (GMT +0100)
Aviano Mil | | Change Station
CLOSE
Current Station
Airport
Location: Aviano,
Elevation: 410 ft
Nearby Weather Stations

Elev 410 ft 46.03 °N, 12.60 °E | Updated 50 minutes ago

Rain
Rain Mist
48 °F
Feels Like 48 °F
N
6
Wind Variable Wind from SE

Today
High -- | Low -- °F
--% Chance of Precip.
Yesterday
High -- | Low -- °F
Precip. -- in
Pressure 29.56 in
Visibility 1.9 miles
Clouds Scattered Clouds 2500 ft
Mostly Cloudy 3000 ft
Dew Point 45 °F
Humidity 87%
Rainfall 0.00 in
Snow Depth Not available.
7:22 AM 5:25 PM
New Moon, 2% visible
METAR LIPA 091955Z 14005KT 3000 RA BR SCT025 BKN030 09/07 Q1001 RMK OVC VIS MIN 3000 WIND THR05 10005KT WIND THR23 10005KT A2958 YLO
Pressure 29.56 in
Visibility 1.9 miles
Clouds Scattered Clouds 2500 ft
Mostly Cloudy 3000 ft
Dew Point 45 °F
Humidity 87%
Rainfall 0.00 in
Snow Depth Not available.
7:22 AM 5:25 PM
New Moon, 2% visible
METAR LIPA 091955Z 14005KT 3000 RA BR SCT025 BKN030 09/07 Q1001 RMK OVC VIS MIN 3000 WIND THR05 10005KT WIND THR23 10005KT A2958 YLO

10-Day Weather Forecast

Almanac

Astronomy

Feb. 09, 2016 Rise Set
Actual Time
Civil Twilight
Nautical Twilight
Astronomical Twilight
Moon
Length of Visible Light
Length of Day
Tomorrow will be .
, % of the Moon is Illuminated

Today's Extremes

Country Highs Country Lows

Community

WunderPhotos

Upload Photos

1,891,683 photos uploaded!

WunderBlog® & News

Nearby

Air Quality

  Air Quality AQ Index Pollutant
Not available.

Snow Depth

Station Depth Elevation

Earthquake Activity

City Distance Mag. Time & Date
Minimum magnitude displayed is 2.5.

Coastal Water Temperatures

Place Temperature

Stations

Nearby Weather Stations

Station Location Temp. Windchill Dew Point Humidity Wind Precip. Elev Updated Type